Time;durP1;ratioP1;P1;durP2;ratioP2;P2;SDS_P1;SDS_P2;PMS_P1;PMS_P2;Temp;Humidity;BMP_temperature;BMP_pressure;BME280_temperature;BME280_humidity;BME280_pressure;Samples;Min_cycle;Max_cycle;Signal;HPM_P1;HPM_P2
2023/09/05 00:00:02;;;;;;;2.25;1.67;;;;;;;;;;5060415;28;20039;-85
2023/09/05 00:02:28;;;;;;;1.58;1.48;;;;;;;;;;5065390;28;20017;-86
2023/09/05 00:04:57;;;;;;;5.30;1.42;;;;;;;;;;5049101;28;20087;-85
2023/09/05 00:07:23;;;;;;;1.67;1.13;;;;;;;;;;5056567;28;20059;-85
2023/09/05 00:09:49;;;;;;;1.90;1.25;;;;;;;;;;5062843;28;20158;-85
2023/09/05 00:12:15;;;;;;;2.35;1.70;;;;;;;;;;5063878;28;20028;-85
2023/09/05 00:14:42;;;;;;;1.92;1.20;;;;;;;;;;5055751;28;20021;-85
2023/09/05 00:17:07;;;;;;;1.98;1.40;;;;;;;;;;5059167;28;20253;-85
2023/09/05 00:19:33;;;;;;;2.17;1.58;;;;;;;;;;5055638;28;20487;-85
2023/09/05 00:21:59;;;;;;;1.95;1.33;;;;;;;;;;5048344;28;20029;-85
2023/09/05 00:24:39;;;;;;;2.15;1.40;;;;;;;;;;5054459;28;20083;-85
2023/09/05 00:27:14;;;;;;;1.63;1.23;;;;;;;;;;5058961;28;20399;-85
2023/09/05 00:29:41;;;;;;;2.13;1.25;;;;;;;;;;5049675;28;20053;-85
2023/09/05 00:32:09;;;;;;;1.85;1.33;;;;;;;;;;5059489;28;20025;-85
2023/09/05 00:34:39;;;;;;;1.10;1.00;;;;;;;;;;5052673;28;20483;-85
2023/09/05 00:37:06;;;;;;;3.33;2.50;;;;;;;;;;5055461;28;20029;-85
2023/09/05 00:39:33;;;;;;;1.95;1.55;;;;;;;;;;5056876;28;20450;-85
2023/09/05 00:42:03;;;;;;;2.30;1.50;;;;;;;;;;5054199;28;20108;-85
2023/09/05 00:44:29;;;;;;;2.30;1.38;;;;;;;;;;5071329;28;20031;-85
2023/09/05 00:46:56;;;;;;;2.45;1.50;;;;;;;;;;5067543;28;20033;-84
2023/09/05 00:49:27;;;;;;;1.52;1.27;;;;;;;;;;5067647;28;20132;-85
2023/09/05 00:51:54;;;;;;;1.58;1.08;;;;;;;;;;5062922;28;20050;-85
2023/09/05 00:54:20;;;;;;;1.33;1.23;;;;;;;;;;5060045;28;20432;-84
2023/09/05 00:56:46;;;;;;;2.47;1.38;;;;;;;;;;5053679;28;20171;-84
2023/09/05 00:59:12;;;;;;;1.65;1.40;;;;;;;;;;5053931;28;20032;-84
2023/09/05 01:01:44;;;;;;;1.73;1.30;;;;;;;;;;5057793;28;20387;-85
2023/09/05 01:04:10;;;;;;;8.70;1.88;;;;;;;;;;5056846;28;20064;-84
2023/09/05 01:06:53;;;;;;;4.93;1.75;;;;;;;;;;5059035;28;20032;-84
2023/09/05 01:09:36;;;;;;;2.13;1.45;;;;;;;;;;5059484;28;20470;-84
2023/09/05 01:12:02;;;;;;;2.67;1.42;;;;;;;;;;5059213;28;20248;-85
2023/09/05 01:14:28;;;;;;;1.45;1.35;;;;;;;;;;5065990;28;20029;-84
2023/09/05 01:17:01;;;;;;;1.73;1.48;;;;;;;;;;5067844;28;20032;-84
2023/09/05 01:19:28;;;;;;;1.70;1.25;;;;;;;;;;5055482;28;20105;-84
2023/09/05 01:22:02;;;;;;;1.38;1.27;;;;;;;;;;5061900;28;20116;-84
2023/09/05 01:24:27;;;;;;;1.85;1.67;;;;;;;;;;5066087;28;20398;-84
2023/09/05 01:26:54;;;;;;;1.85;1.45;;;;;;;;;;5068931;28;20021;-84
2023/09/05 01:29:26;;;;;;;1.13;1.02;;;;;;;;;;5050316;28;20052;-84
2023/09/05 01:31:53;;;;;;;2.35;1.27;;;;;;;;;;5068344;28;20070;-84
2023/09/05 01:34:19;;;;;;;2.00;1.35;;;;;;;;;;5066390;28;20020;-84
2023/09/05 01:36:45;;;;;;;2.08;1.65;;;;;;;;;;5050984;28;20053;-84
2023/09/05 01:39:11;;;;;;;1.75;1.20;;;;;;;;;;5055007;28;20024;-84
2023/09/05 01:41:37;;;;;;;2.53;1.50;;;;;;;;;;5065558;28;20627;-85
2023/09/05 01:44:03;;;;;;;1.92;1.50;;;;;;;;;;5055752;28;20569;-84
2023/09/05 01:46:29;;;;;;;1.80;1.42;;;;;;;;;;5063022;28;20029;-84
2023/09/05 01:48:55;;;;;;;2.20;1.60;;;;;;;;;;5059477;28;20069;-85
2023/09/05 01:51:21;;;;;;;2.00;1.40;;;;;;;;;;5062451;28;20021;-84
2023/09/05 01:53:47;;;;;;;1.60;1.27;;;;;;;;;;5062402;28;20025;-84
2023/09/05 01:56:13;;;;;;;1.98;1.40;;;;;;;;;;5065523;28;20039;-84
2023/09/05 01:58:39;;;;;;;2.05;1.33;;;;;;;;;;5052703;28;20079;-84
2023/09/05 02:01:05;;;;;;;1.52;1.30;;;;;;;;;;5065872;28;20479;-85
2023/09/05 02:03:31;;;;;;;2.95;1.10;;;;;;;;;;5061050;28;20490;-84
2023/09/05 02:05:57;;;;;;;1.63;1.20;;;;;;;;;;5057470;28;20029;-84
2023/09/05 02:08:23;;;;;;;1.55;1.42;;;;;;;;;;5063812;28;20021;-84
2023/09/05 02:10:49;;;;;;;2.72;1.45;;;;;;;;;;5060833;28;20032;-84
2023/09/05 02:13:17;;;;;;;1.25;1.15;;;;;;;;;;5061963;28;20036;-84
2023/09/05 02:15:43;;;;;;;1.58;1.33;;;;;;;;;;5055642;28;20498;-84
2023/09/05 02:18:10;;;;;;;1.80;1.25;;;;;;;;;;5055325;28;20044;-84
2023/09/05 02:20:40;;;;;;;1.58;1.48;;;;;;;;;;5050787;28;20028;-84
2023/09/05 02:23:07;;;;;;;2.10;1.60;;;;;;;;;;5060815;28;20032;-84
2023/09/05 02:25:33;;;;;;;1.30;1.10;;;;;;;;;;5061422;28;20137;-83
2023/09/05 02:27:59;;;;;;;1.75;1.38;;;;;;;;;;5063917;28;20163;-84
2023/09/05 02:30:26;;;;;;;2.03;1.23;;;;;;;;;;5056064;28;20404;-84
2023/09/05 02:32:52;;;;;;;1.38;1.10;;;;;;;;;;5049803;28;20025;-83
2023/09/05 02:35:20;;;;;;;1.58;1.40;;;;;;;;;;5057042;28;20028;-84
2023/09/05 02:37:46;;;;;;;1.20;1.00;;;;;;;;;;5057995;28;20094;-84
2023/09/05 02:40:13;;;;;;;2.35;1.60;;;;;;;;;;5064581;28;20067;-84
2023/09/05 02:42:39;;;;;;;2.60;1.40;;;;;;;;;;5061967;28;20017;-84
2023/09/05 02:45:05;;;;;;;1.70;1.23;;;;;;;;;;5052932;28;20087;-84
2023/09/05 02:47:31;;;;;;;2.05;1.40;;;;;;;;;;5058694;28;20111;-84
2023/09/05 02:49:57;;;;;;;1.90;1.25;;;;;;;;;;5056133;28;20033;-84
2023/09/05 02:52:24;;;;;;;1.35;1.15;;;;;;;;;;5064058;28;20044;-84
2023/09/05 02:54:50;;;;;;;1.45;1.13;;;;;;;;;;5063003;28;20024;-84
2023/09/05 02:57:16;;;;;;;2.60;1.23;;;;;;;;;;5058074;28;20020;-84
2023/09/05 02:59:42;;;;;;;2.42;1.58;;;;;;;;;;5054586;28;20041;-84
2023/09/05 03:02:08;;;;;;;1.67;1.50;;;;;;;;;;5058510;28;20146;-84
2023/09/05 03:04:34;;;;;;;1.80;1.60;;;;;;;;;;5059295;28;20028;-84
2023/09/05 03:07:01;;;;;;;1.50;1.40;;;;;;;;;;5051928;28;20025;-84
2023/09/05 03:09:28;;;;;;;2.53;1.58;;;;;;;;;;5064346;28;20379;-84
2023/09/05 03:11:54;;;;;;;1.58;1.33;;;;;;;;;;5058102;28;20025;-84
2023/09/05 03:14:20;;;;;;;1.63;1.27;;;;;;;;;;5062515;28;20415;-84
2023/09/05 03:16:46;;;;;;;2.88;1.17;;;;;;;;;;5056867;28;20052;-84
2023/09/05 03:19:12;;;;;;;1.83;1.40;;;;;;;;;;5057878;28;20036;-84
2023/09/05 03:21:38;;;;;;;1.58;1.35;;;;;;;;;;5057736;28;20028;-84
2023/09/05 03:24:05;;;;;;;1.48;1.35;;;;;;;;;;5064873;28;20786;-84
2023/09/05 03:26:31;;;;;;;1.73;1.40;;;;;;;;;;5053709;28;20040;-84
2023/09/05 03:28:59;;;;;;;1.83;1.20;;;;;;;;;;5053042;28;20114;-84
2023/09/05 03:31:28;;;;;;;2.70;1.60;;;;;;;;;;5058257;28;20069;-84
2023/09/05 03:34:00;;;;;;;2.28;1.35;;;;;;;;;;5060152;28;20071;-84
2023/09/05 03:36:26;;;;;;;3.58;1.90;;;;;;;;;;5067029;28;20029;-84
2023/09/05 03:38:52;;;;;;;2.42;1.38;;;;;;;;;;5054688;28;20052;-83
2023/09/05 03:41:18;;;;;;;1.35;1.10;;;;;;;;;;5048843;28;20479;-83
2023/09/05 03:43:44;;;;;;;1.75;1.30;;;;;;;;;;5062296;28;20066;-83
2023/09/05 03:46:10;;;;;;;1.75;1.23;;;;;;;;;;5064098;28;20020;-83
2023/09/05 03:48:39;;;;;;;1.27;1.17;;;;;;;;;;5061845;28;20537;-84
2023/09/05 03:51:05;;;;;;;1.42;1.08;;;;;;;;;;5055731;28;20028;-83
2023/09/05 03:53:32;;;;;;;1.25;1.15;;;;;;;;;;5056762;28;20376;-83
2023/09/05 03:55:58;;;;;;;2.47;1.27;;;;;;;;;;5059088;28;20021;-83
2023/09/05 03:58:24;;;;;;;1.55;1.13;;;;;;;;;;5063115;28;20029;-83
2023/09/05 04:00:49;;;;;;;1.25;1.13;;;;;;;;;;5059841;28;20426;-83
2023/09/05 04:03:15;;;;;;;2.45;1.40;;;;;;;;;;5054794;28;20063;-83
2023/09/05 04:05:41;;;;;;;2.10;1.23;;;;;;;;;;5060694;28;20919;-83
2023/09/05 04:08:08;;;;;;;1.25;1.13;;;;;;;;;;5060242;28;20039;-83
2023/09/05 04:10:34;;;;;;;1.58;1.13;;;;;;;;;;5058893;28;20082;-83
2023/09/05 04:13:00;;;;;;;1.63;1.30;;;;;;;;;;5058987;28;20029;-83
2023/09/05 04:15:26;;;;;;;1.90;1.48;;;;;;;;;;5067356;28;20441;-83
2023/09/05 04:17:52;;;;;;;2.85;1.13;;;;;;;;;;5066803;28;20511;-83
2023/09/05 04:20:18;;;;;;;1.45;1.33;;;;;;;;;;5066666;28;20127;-83
2023/09/05 04:22:45;;;;;;;1.83;1.40;;;;;;;;;;5063401;28;20033;-83
2023/09/05 04:25:11;;;;;;;1.17;1.02;;;;;;;;;;5059437;28;20052;-82
2023/09/05 04:27:37;;;;;;;1.52;1.30;;;;;;;;;;5068020;28;20040;-82
2023/09/05 04:30:03;;;;;;;1.85;1.10;;;;;;;;;;5062078;28;20040;-83
2023/09/05 04:32:32;;;;;;;1.30;1.20;;;;;;;;;;5061059;28;20028;-82
2023/09/05 04:34:59;;;;;;;2.70;1.60;;;;;;;;;;5052534;28;20040;-82
2023/09/05 04:37:25;;;;;;;2.00;1.45;;;;;;;;;;5057889;28;20106;-80
2023/09/05 04:39:51;;;;;;;2.45;1.23;;;;;;;;;;5060151;28;20465;-83
2023/09/05 04:42:17;;;;;;;2.00;1.40;;;;;;;;;;5063145;28;20047;-83
2023/09/05 04:44:43;;;;;;;1.55;1.30;;;;;;;;;;5058620;28;20024;-75
2023/09/05 04:47:23;;;;;;;1.67;1.25;;;;;;;;;;5064314;28;20036;-75
2023/09/05 04:49:49;;;;;;;1.75;1.30;;;;;;;;;;5067974;28;20053;-74
2023/09/05 04:52:15;;;;;;;2.08;1.42;;;;;;;;;;5060121;28;20044;-75
2023/09/05 04:54:41;;;;;;;1.23;1.10;;;;;;;;;;5060699;28;20017;-86
2023/09/05 04:57:10;;;;;;;1.42;1.33;;;;;;;;;;5065641;28;20083;-82
2023/09/05 04:59:36;;;;;;;1.23;1.10;;;;;;;;;;5058129;28;20115;-78
2023/09/05 05:02:02;;;;;;;1.95;1.50;;;;;;;;;;5060556;28;20035;-79
2023/09/05 05:04:28;;;;;;;1.70;1.50;;;;;;;;;;5065378;28;20024;-78
2023/09/05 05:06:54;;;;;;;2.47;1.40;;;;;;;;;;5057486;28;20471;-79
2023/09/05 05:09:20;;;;;;;2.05;1.23;;;;;;;;;;5049524;28;20025;-82
2023/09/05 05:11:46;;;;;;;1.52;1.17;;;;;;;;;;5065888;28;20367;-76
2023/09/05 05:14:21;;;;;;;1.70;1.20;;;;;;;;;;5051000;28;20048;-80
2023/09/05 05:16:47;;;;;;;2.03;1.33;;;;;;;;;;5060562;28;20029;-78
2023/09/05 05:19:13;;;;;;;4.47;1.38;;;;;;;;;;5055872;28;20029;-78
2023/09/05 05:21:39;;;;;;;4.57;1.25;;;;;;;;;;5058196;28;20028;-79
2023/09/05 05:24:18;;;;;;;2.08;1.40;;;;;;;;;;5062704;28;20070;-82
2023/09/05 05:26:44;;;;;;;2.17;1.60;;;;;;;;;;5050971;28;20036;-81
2023/09/05 05:29:32;;;;;;;1.20;1.00;;;;;;;;;;5066448;28;20045;-79
2023/09/05 05:31:58;;;;;;;1.10;1.00;;;;;;;;;;5062451;28;20032;-79
2023/09/05 05:34:24;;;;;;;5.47;1.67;;;;;;;;;;5060136;28;20036;-80
2023/09/05 05:36:50;;;;;;;1.25;1.15;;;;;;;;;;5066228;28;20370;-79
2023/09/05 05:39:21;;;;;;;1.67;1.52;;;;;;;;;;5068481;28;20391;-79
2023/09/05 05:41:47;;;;;;;1.73;1.35;;;;;;;;;;5063610;28;20507;-79
2023/09/05 05:44:13;;;;;;;2.30;1.35;;;;;;;;;;5050166;28;20039;-80
2023/09/05 05:46:39;;;;;;;1.98;1.35;;;;;;;;;;5049908;28;20032;-79
2023/09/05 05:49:05;;;;;;;1.90;1.40;;;;;;;;;;5055487;28;20024;-78
2023/09/05 05:51:32;;;;;;;2.38;1.30;;;;;;;;;;5063366;28;20071;-79
2023/09/05 05:53:58;;;;;;;1.33;1.15;;;;;;;;;;5050065;28;20491;-79
2023/09/05 05:56:24;;;;;;;2.10;1.20;;;;;;;;;;5049867;28;20017;-79
2023/09/05 05:58:50;;;;;;;4.28;1.40;;;;;;;;;;5050370;28;20013;-79
2023/09/05 06:01:20;;;;;;;1.50;1.15;;;;;;;;;;5053594;28;20028;-79
2023/09/05 06:03:46;;;;;;;1.73;1.27;;;;;;;;;;5050029;28;20023;-79
2023/09/05 06:06:12;;;;;;;2.33;1.30;;;;;;;;;;5049915;28;20116;-79
2023/09/05 06:08:39;;;;;;;1.25;1.10;;;;;;;;;;5049705;28;20147;-79
2023/09/05 06:11:04;;;;;;;1.92;1.45;;;;;;;;;;5057263;28;20047;-78
2023/09/05 06:13:30;;;;;;;1.02;0.93;;;;;;;;;;5053417;28;20024;-78
2023/09/05 06:15:57;;;;;;;1.40;1.20;;;;;;;;;;5051327;28;20392;-78
2023/09/05 06:18:23;;;;;;;1.75;1.55;;;;;;;;;;5049548;28;20186;-79
2023/09/05 06:20:49;;;;;;;1.48;0.80;;;;;;;;;;5062505;28;20140;-79
2023/09/05 06:23:15;;;;;;;2.08;1.20;;;;;;;;;;5064418;28;20033;-80
2023/09/05 06:25:41;;;;;;;2.15;1.17;;;;;;;;;;5070046;28;20460;-80
2023/09/05 06:28:07;;;;;;;1.95;1.40;;;;;;;;;;5053116;28;20028;-79
2023/09/05 06:30:33;;;;;;;1.27;1.00;;;;;;;;;;5061988;28;20032;-79
2023/09/05 06:32:59;;;;;;;2.22;1.50;;;;;;;;;;5064435;28;20021;-78
2023/09/05 06:35:25;;;;;;;1.67;1.10;;;;;;;;;;5065224;28;20028;-80
2023/09/05 06:37:55;;;;;;;2.45;1.10;;;;;;;;;;5067272;28;20536;-78
2023/09/05 06:40:23;;;;;;;2.30;1.20;;;;;;;;;;5056071;28;20075;-78
2023/09/05 06:42:49;;;;;;;1.83;1.25;;;;;;;;;;5050609;28;20033;-80
2023/09/05 06:45:15;;;;;;;1.20;1.10;;;;;;;;;;5064300;28;20024;-91
2023/09/05 06:47:41;;;;;;;1.52;1.42;;;;;;;;;;5065717;28;20027;-93
2023/09/05 06:50:07;;;;;;;1.42;0.93;;;;;;;;;;5058632;28;20025;-93
2023/09/05 06:52:34;;;;;;;1.10;1.00;;;;;;;;;;5065306;28;20036;-92
2023/09/05 06:55:00;;;;;;;0.80;0.80;;;;;;;;;;5066014;28;20029;-94
2023/09/05 06:57:26;;;;;;;1.42;1.08;;;;;;;;;;5054265;28;20028;-93
2023/09/05 06:59:53;;;;;;;2.10;1.10;;;;;;;;;;5072827;28;20052;-93
2023/09/05 07:02:19;;;;;;;1.95;1.40;;;;;;;;;;5065267;28;20056;-81
2023/09/05 07:04:45;;;;;;;1.27;0.98;;;;;;;;;;5062484;28;20050;-80
2023/09/05 07:07:13;;;;;;;1.75;1.23;;;;;;;;;;5055678;28;20037;-79
2023/09/05 07:09:39;;;;;;;1.92;1.23;;;;;;;;;;5068150;28;20661;-79
2023/09/05 07:12:06;;;;;;;1.60;1.23;;;;;;;;;;5066330;28;20054;-78
2023/09/05 07:14:32;;;;;;;1.88;1.25;;;;;;;;;;5061977;28;20021;-79
2023/09/05 07:16:58;;;;;;;1.15;1.05;;;;;;;;;;5051426;28;20143;-79
2023/09/05 07:19:24;;;;;;;2.35;0.98;;;;;;;;;;5058261;28;20029;-78
2023/09/05 07:21:50;;;;;;;1.42;1.33;;;;;;;;;;5066587;28;20040;-78
2023/09/05 07:24:17;;;;;;;1.60;1.13;;;;;;;;;;5050499;28;20039;-78
2023/09/05 07:26:44;;;;;;;1.00;1.00;;;;;;;;;;5067979;28;20135;-79
2023/09/05 07:29:11;;;;;;;4.38;1.20;;;;;;;;;;5058165;28;20055;-79
2023/09/05 07:31:40;;;;;;;2.55;1.20;;;;;;;;;;5053877;28;20051;-79
2023/09/05 07:34:06;;;;;;;1.48;1.00;;;;;;;;;;5051628;28;20043;-80
2023/09/05 07:36:33;;;;;;;1.00;0.95;;;;;;;;;;5064852;28;20039;-78
2023/09/05 07:38:59;;;;;;;1.95;1.08;;;;;;;;;;5065077;28;20482;-78
2023/09/05 07:41:25;;;;;;;1.55;1.10;;;;;;;;;;5056227;28;20521;-78
2023/09/05 07:43:52;;;;;;;1.90;1.27;;;;;;;;;;5055470;28;20530;-78
2023/09/05 07:46:18;;;;;;;1.55;1.15;;;;;;;;;;5067272;28;20032;-77
2023/09/05 07:48:46;;;;;;;0.95;0.85;;;;;;;;;;5065729;28;20024;-82
2023/09/05 07:51:12;;;;;;;1.55;1.20;;;;;;;;;;5063243;28;20036;-82
2023/09/05 07:53:38;;;;;;;1.33;1.00;;;;;;;;;;5064902;28;20029;-81
2023/09/05 07:56:04;;;;;;;1.73;1.17;;;;;;;;;;5055853;28;20025;-82
2023/09/05 07:58:31;;;;;;;1.10;1.00;;;;;;;;;;5065711;28;20036;-82
2023/09/05 08:00:57;;;;;;;2.28;1.58;;;;;;;;;;5067071;28;20024;-82
2023/09/05 08:03:25;;;;;;;1.15;1.00;;;;;;;;;;5055232;28;20805;-84
2023/09/05 08:05:53;;;;;;;1.70;1.17;;;;;;;;;;5064562;28;20039;-84
2023/09/05 08:08:19;;;;;;;1.85;1.02;;;;;;;;;;5062495;28;20024;-80
2023/09/05 08:10:45;;;;;;;1.25;1.08;;;;;;;;;;5070197;28;20060;-79
2023/09/05 08:13:13;;;;;;;3.80;1.40;;;;;;;;;;5063721;28;20028;-81
2023/09/05 08:15:40;;;;;;;5.18;1.98;;;;;;;;;;5071914;28;20032;-76
2023/09/05 08:18:06;;;;;;;1.65;1.02;;;;;;;;;;5061484;28;20027;-79
2023/09/05 08:20:32;;;;;;;1.27;1.08;;;;;;;;;;5069828;28;20048;-79
2023/09/05 08:23:00;;;;;;;1.35;0.98;;;;;;;;;;5072309;28;20150;-80
2023/09/05 08:25:26;;;;;;;1.35;0.98;;;;;;;;;;5069172;28;20051;-81
2023/09/05 08:27:53;;;;;;;0.93;0.93;;;;;;;;;;5066708;28;20575;-79
2023/09/05 08:30:24;;;;;;;0.93;0.85;;;;;;;;;;5056365;28;20044;-80
2023/09/05 08:32:49;;;;;;;1.17;0.95;;;;;;;;;;5064754;28;20387;-80
2023/09/05 08:35:15;;;;;;;3.92;1.60;;;;;;;;;;5057346;28;20019;-80
2023/09/05 08:37:41;;;;;;;1.17;1.00;;;;;;;;;;5055694;28;20387;-79
2023/09/05 08:40:08;;;;;;;1.23;1.10;;;;;;;;;;5054150;28;20071;-79
2023/09/05 08:42:36;;;;;;;1.70;1.40;;;;;;;;;;5056113;28;20116;-79
2023/09/05 08:47:48;;;;;;;1.38;1.17;;;;;;;;;;5063412;28;20077;-78
2023/09/05 08:50:14;;;;;;;1.60;1.00;;;;;;;;;;5071135;28;20020;-79
2023/09/05 08:52:42;;;;;;;1.40;1.20;;;;;;;;;;5068252;28;20027;-79
2023/09/05 08:55:09;;;;;;;1.48;1.38;;;;;;;;;;5070984;28;20020;-78
2023/09/05 08:57:38;;;;;;;2.42;1.50;;;;;;;;;;5070417;28;20079;-79
2023/09/05 09:00:04;;;;;;;1.42;1.10;;;;;;;;;;5071076;28;20032;-79
2023/09/05 09:02:30;;;;;;;2.20;1.48;;;;;;;;;;5070033;28;20028;-79
2023/09/05 09:04:56;;;;;;;1.20;1.00;;;;;;;;;;5071179;28;20028;-79
2023/09/05 09:07:29;;;;;;;3.05;1.25;;;;;;;;;;5070750;28;20124;-79
2023/09/05 09:09:55;;;;;;;1.77;1.10;;;;;;;;;;5070559;28;20028;-78
2023/09/05 09:12:29;;;;;;;1.67;1.27;;;;;;;;;;5067496;28;20051;-79
2023/09/05 09:14:55;;;;;;;1.40;1.30;;;;;;;;;;5050794;28;20054;-79
2023/09/05 09:17:25;;;;;;;0.80;0.80;;;;;;;;;;5050804;28;20060;-79
2023/09/05 09:19:55;;;;;;;1.23;0.98;;;;;;;;;;5050787;28;20021;-79
2023/09/05 09:22:24;;;;;;;2.38;1.33;;;;;;;;;;5056562;28;20651;-79
2023/09/05 09:24:50;;;;;;;3.70;0.90;;;;;;;;;;5061435;28;20132;-79
2023/09/05 09:27:22;;;;;;;4.22;1.20;;;;;;;;;;5065203;28;20029;-79
2023/09/05 09:29:53;;;;;;;1.45;1.02;;;;;;;;;;5063081;28;20056;-79
2023/09/05 09:32:22;;;;;;;1.23;1.00;;;;;;;;;;5066561;28;20068;-79
2023/09/05 09:34:48;;;;;;;2.00;1.25;;;;;;;;;;5051580;28;20021;-79
2023/09/05 09:37:23;;;;;;;1.20;1.10;;;;;;;;;;5054130;28;20111;-79
2023/09/05 09:39:49;;;;;;;1.67;1.05;;;;;;;;;;5062495;28;20058;-78
2023/09/05 09:42:23;;;;;;;1.25;1.10;;;;;;;;;;5060600;28;20117;-78
2023/09/05 09:44:49;;;;;;;3.65;1.25;;;;;;;;;;5066519;28;20033;-79
2023/09/05 09:47:17;;;;;;;0.98;0.93;;;;;;;;;;5070139;28;20025;-78
2023/09/05 09:49:46;;;;;;;0.93;0.93;;;;;;;;;;5070356;28;20040;-78
2023/09/05 09:52:13;;;;;;;1.63;1.20;;;;;;;;;;5068438;28;20085;-78
2023/09/05 09:54:39;;;;;;;2.75;0.90;;;;;;;;;;5052654;28;20064;-78
2023/09/05 09:57:06;;;;;;;1.10;1.00;;;;;;;;;;5049982;28;20036;-78
2023/09/05 09:59:36;;;;;;;0.80;0.80;;;;;;;;;;5049848;28;20756;-78
2023/09/05 10:02:07;;;;;;;2.25;1.02;;;;;;;;;;5050122;28;20554;-78
2023/09/05 10:04:33;;;;;;;0.82;0.82;;;;;;;;;;5061653;28;20112;-78
2023/09/05 10:06:59;;;;;;;1.40;0.80;;;;;;;;;;5050085;28;20044;-78
2023/09/05 10:09:26;;;;;;;0.90;0.77;;;;;;;;;;5048337;28;20025;-79
2023/09/05 10:11:53;;;;;;;1.23;0.90;;;;;;;;;;5050022;28;20472;-78
2023/09/05 10:14:20;;;;;;;1.10;0.90;;;;;;;;;;5063188;28;20089;-78
2023/09/05 10:16:46;;;;;;;1.58;1.30;;;;;;;;;;5069377;28;20029;-78
2023/09/05 10:19:14;;;;;;;1.27;1.10;;;;;;;;;;5069413;28;20021;-78
2023/09/05 10:21:40;;;;;;;0.98;0.85;;;;;;;;;;5069807;28;20475;-79
2023/09/05 10:24:07;;;;;;;1.23;1.13;;;;;;;;;;5061996;28;20079;-79
2023/09/05 10:26:33;;;;;;;1.23;1.08;;;;;;;;;;5065384;28;20033;-79
2023/09/05 10:28:59;;;;;;;1.00;0.90;;;;;;;;;;5069070;28;20044;-78
2023/09/05 10:31:25;;;;;;;1.20;1.00;;;;;;;;;;5067530;28;20024;-78
2023/09/05 10:33:51;;;;;;;1.60;1.10;;;;;;;;;;5066115;28;20029;-79
2023/09/05 10:36:36;;;;;;;1.00;1.00;;;;;;;;;;5061756;28;20032;-79
2023/09/05 10:39:16;;;;;;;1.88;1.30;;;;;;;;;;5069474;28;20081;-79
2023/09/05 10:41:42;;;;;;;1.10;0.80;;;;;;;;;;5068155;28;20123;-79
2023/09/05 10:44:08;;;;;;;1.48;0.93;;;;;;;;;;5069165;28;20503;-79
2023/09/05 10:46:34;;;;;;;1.42;1.25;;;;;;;;;;5068962;28;20365;-79
2023/09/05 10:49:10;;;;;;;1.85;1.40;;;;;;;;;;5068982;28;20032;-78
2023/09/05 10:51:36;;;;;;;1.10;0.90;;;;;;;;;;5067051;28;20032;-79
2023/09/05 10:54:27;;;;;;;1.05;0.90;;;;;;;;;;5055953;28;20028;-78
2023/09/05 10:56:53;;;;;;;1.10;0.90;;;;;;;;;;5058188;28;20025;-79
2023/09/05 10:59:32;;;;;;;2.35;1.05;;;;;;;;;;5065421;28;20036;-79
2023/09/05 11:02:00;;;;;;;1.35;0.90;;;;;;;;;;5063296;28;20017;-79
2023/09/05 11:04:27;;;;;;;0.95;0.88;;;;;;;;;;5050730;28;20040;-79
2023/09/05 11:06:57;;;;;;;0.95;0.80;;;;;;;;;;5048878;28;20475;-79
2023/09/05 11:09:24;;;;;;;0.82;0.82;;;;;;;;;;5048593;28;20025;-79
2023/09/05 11:11:51;;;;;;;0.88;0.80;;;;;;;;;;5059554;28;20028;-79
2023/09/05 11:14:28;;;;;;;1.05;0.77;;;;;;;;;;5048873;28;20032;-79
2023/09/05 11:16:56;;;;;;;0.82;0.80;;;;;;;;;;5048605;28;20028;-78
2023/09/05 11:19:29;;;;;;;1.27;1.02;;;;;;;;;;5049556;28;20021;-79
2023/09/05 11:22:11;;;;;;;0.98;0.85;;;;;;;;;;5052872;28;20024;-78
2023/09/05 11:24:38;;;;;;;;;;;;;;;;;;5049814;28;20089;-78
2023/09/05 11:27:06;;;;;;;1.15;0.98;;;;;;;;;;5064125;28;19904;-78
2023/09/05 11:29:33;;;;;;;0.70;0.70;;;;;;;;;;5048350;28;20049;-78
2023/09/05 11:32:00;;;;;;;1.55;1.23;;;;;;;;;;5067284;28;20059;-78
2023/09/05 11:34:27;;;;;;;0.73;0.73;;;;;;;;;;5061270;28;20383;-78
2023/09/05 11:36:53;;;;;;;1.25;1.00;;;;;;;;;;5065305;28;20040;-78
2023/09/05 11:39:25;;;;;;;0.80;0.80;;;;;;;;;;5067400;28;20017;-78
2023/09/05 11:41:54;;;;;;;1.10;1.00;;;;;;;;;;5068443;28;20044;-79
2023/09/05 11:44:30;;;;;;;1.48;1.00;;;;;;;;;;5068332;28;20020;-79
2023/09/05 11:46:56;;;;;;;1.02;0.93;;;;;;;;;;5057548;28;20024;-78
2023/09/05 11:49:22;;;;;;;1.15;1.05;;;;;;;;;;5051872;28;20031;-76
2023/09/05 11:51:48;;;;;;;1.85;1.30;;;;;;;;;;5049109;28;20543;-77
2023/09/05 11:54:14;;;;;;;0.77;0.77;;;;;;;;;;5056563;28;20111;-77
2023/09/05 11:56:40;;;;;;;0.93;0.93;;;;;;;;;;5048896;28;20021;-78
2023/09/05 11:59:06;;;;;;;1.02;0.93;;;;;;;;;;5054166;28;20112;-78
2023/09/05 12:01:32;;;;;;;1.05;0.95;;;;;;;;;;5048034;28;20025;-77
2023/09/05 12:04:03;;;;;;;3.20;0.82;;;;;;;;;;5048048;28;20083;-78
2023/09/05 12:06:29;;;;;;;;;;;;;;;;;;5057988;28;20028;-78
2023/09/05 12:08:58;;;;;;;0.80;0.80;;;;;;;;;;5063782;28;19951;-78
2023/09/05 12:11:25;;;;;;;0.82;0.77;;;;;;;;;;5048731;28;20028;-78
2023/09/05 12:13:56;;;;;;;1.27;0.82;;;;;;;;;;5047949;28;20125;-78
2023/09/05 12:16:22;;;;;;;0.98;0.88;;;;;;;;;;5047880;28;20045;-78
2023/09/05 12:18:48;;;;;;;1.05;0.95;;;;;;;;;;5059284;28;20094;-78
2023/09/05 12:21:14;;;;;;;1.27;0.90;;;;;;;;;;5057875;28;20053;-77
2023/09/05 12:23:40;;;;;;;1.35;1.08;;;;;;;;;;5047801;28;20035;-78
2023/09/05 12:26:07;;;;;;;1.02;0.98;;;;;;;;;;5061398;28;20023;-78
2023/09/05 12:28:34;;;;;;;1.05;0.93;;;;;;;;;;5057287;28;20095;-78
2023/09/05 12:31:10;;;;;;;1.38;1.10;;;;;;;;;;5049348;28;20119;-79
2023/09/05 12:33:36;;;;;;;0.70;0.70;;;;;;;;;;5067803;28;20083;-78
2023/09/05 12:36:02;;;;;;;1.13;0.98;;;;;;;;;;5067758;28;20485;-78
2023/09/05 12:38:30;;;;;;;0.88;0.77;;;;;;;;;;5063752;28;20036;-78
2023/09/05 12:40:57;;;;;;;0.77;0.75;;;;;;;;;;5064795;28;20177;-78
2023/09/05 12:43:24;;;;;;;1.30;1.20;;;;;;;;;;5066104;28;20473;-78
2023/09/05 12:45:50;;;;;;;1.10;1.00;;;;;;;;;;5067581;28;20482;-78
2023/09/05 12:48:16;;;;;;;0.88;0.85;;;;;;;;;;5067400;28;20483;-79
2023/09/05 12:50:45;;;;;;;0.80;0.80;;;;;;;;;;5063709;28;20040;-78
2023/09/05 12:53:12;;;;;;;0.82;0.75;;;;;;;;;;5060697;28;20052;-77
2023/09/05 12:55:39;;;;;;;2.70;0.95;;;;;;;;;;5061454;28;20066;-78
2023/09/05 12:58:06;;;;;;;0.85;0.75;;;;;;;;;;5073214;28;20537;-77
2023/09/05 13:00:33;;;;;;;0.77;0.77;;;;;;;;;;5064479;28;20074;-77
2023/09/05 13:03:00;;;;;;;0.70;0.70;;;;;;;;;;5069611;28;20037;-77
2023/09/05 13:05:28;;;;;;;0.93;0.85;;;;;;;;;;5068228;28;20028;-77
2023/09/05 13:07:54;;;;;;;1.40;0.70;;;;;;;;;;5066296;28;20174;-77
2023/09/05 13:10:20;;;;;;;0.65;0.65;;;;;;;;;;5068470;28;20078;-78
2023/09/05 13:12:47;;;;;;;0.88;0.63;;;;;;;;;;5064613;28;20026;-78
2023/09/05 13:15:13;;;;;;;6.32;0.80;;;;;;;;;;5059288;28;20708;-77
2023/09/05 13:17:44;;;;;;;1.10;0.70;;;;;;;;;;5066972;28;20060;-78
2023/09/05 13:20:10;;;;;;;0.80;0.80;;;;;;;;;;5064983;28;20386;-78
2023/09/05 13:22:36;;;;;;;2.13;0.70;;;;;;;;;;5053683;28;20037;-78
2023/09/05 13:25:02;;;;;;;1.02;0.93;;;;;;;;;;5064716;28;20017;-78
2023/09/05 13:27:28;;;;;;;0.77;0.73;;;;;;;;;;5063915;28;20471;-78
2023/09/05 13:29:55;;;;;;;0.50;0.50;;;;;;;;;;5064184;28;20037;-78
2023/09/05 13:32:22;;;;;;;1.00;0.90;;;;;;;;;;5066659;28;20027;-78
2023/09/05 13:34:48;;;;;;;1.08;1.00;;;;;;;;;;5051596;28;20079;-78
2023/09/05 13:37:14;;;;;;;0.80;0.80;;;;;;;;;;5061704;28;20025;-78
2023/09/05 13:39:40;;;;;;;0.60;0.60;;;;;;;;;;5057985;28;20021;-78
2023/09/05 13:42:05;;;;;;;0.80;0.80;;;;;;;;;;5067970;28;20035;-78
2023/09/05 13:44:32;;;;;;;0.80;0.80;;;;;;;;;;5057586;28;20039;-77
2023/09/05 13:46:58;;;;;;;0.95;0.80;;;;;;;;;;5057580;28;20072;-78
2023/09/05 13:49:24;;;;;;;0.77;0.77;;;;;;;;;;5062019;28;20099;-79
2023/09/05 13:51:51;;;;;;;0.90;0.70;;;;;;;;;;5058233;28;20032;-78
2023/09/05 13:54:20;;;;;;;1.30;1.20;;;;;;;;;;5061864;28;20025;-76
2023/09/05 13:56:46;;;;;;;1.00;0.93;;;;;;;;;;5055237;28;20048;-77
2023/09/05 13:59:13;;;;;;;1.15;1.05;;;;;;;;;;5055480;28;20028;-76
2023/09/05 14:01:39;;;;;;;0.70;0.70;;;;;;;;;;5066632;28;20487;-76
2023/09/05 14:04:05;;;;;;;1.63;1.08;;;;;;;;;;5061739;28;20081;-76
2023/09/05 14:06:31;;;;;;;1.17;1.00;;;;;;;;;;5053865;28;20028;-76
2023/09/05 14:08:56;;;;;;;3.50;1.05;;;;;;;;;;5059674;28;20036;-77
2023/09/05 14:11:22;;;;;;;1.05;0.90;;;;;;;;;;5067712;28;20032;-78
2023/09/05 14:13:48;;;;;;;1.00;0.90;;;;;;;;;;5068807;28;20068;-78
2023/09/05 14:16:18;;;;;;;0.98;0.88;;;;;;;;;;5066956;28;20020;-80
2023/09/05 14:18:45;;;;;;;0.88;0.88;;;;;;;;;;5058009;28;20028;-79
2023/09/05 14:21:11;;;;;;;1.30;1.05;;;;;;;;;;5058938;28;20029;-89
2023/09/05 14:23:40;;;;;;;0.60;0.60;;;;;;;;;;5050792;28;20032;-77
2023/09/05 14:26:06;;;;;;;0.88;0.88;;;;;;;;;;5062677;28;20496;-80
2023/09/05 14:28:32;;;;;;;1.08;1.00;;;;;;;;;;5059416;28;20059;-78
2023/09/05 14:30:58;;;;;;;1.75;1.20;;;;;;;;;;5062178;28;20115;-81
2023/09/05 14:33:24;;;;;;;1.30;1.02;;;;;;;;;;5054535;28;20028;-78
2023/09/05 14:35:50;;;;;;;1.13;0.90;;;;;;;;;;5065720;28;20016;-78
2023/09/05 14:38:16;;;;;;;1.30;1.00;;;;;;;;;;5062405;28;20024;-77
2023/09/05 14:40:42;;;;;;;1.95;1.00;;;;;;;;;;5057875;28;20021;-78
2023/09/05 14:43:08;;;;;;;0.95;0.88;;;;;;;;;;5054148;28;20024;-78
2023/09/05 14:45:34;;;;;;;0.70;0.70;;;;;;;;;;5060178;28;20032;-78